createdAt,value
2018-07-12T00:01:54.208Z,62.51
2018-07-12T00:04:22.682Z,62.56
2018-07-12T00:06:50.396Z,62.80
2018-07-12T00:09:18.138Z,62.74
2018-07-12T00:11:45.938Z,62.68
2018-07-12T00:14:13.794Z,62.30
2018-07-12T00:16:41.526Z,62.03
2018-07-12T00:19:09.298Z,62.50
2018-07-12T00:21:37.034Z,62.27
2018-07-12T00:24:04.781Z,61.78
2018-07-12T00:26:32.526Z,62.15
2018-07-12T00:29:00.285Z,62.91
2018-07-12T00:31:28.030Z,63.12
2018-07-12T00:33:55.750Z,63.59
2018-07-12T00:36:23.481Z,63.37
2018-07-12T00:38:51.228Z,63.54
2018-07-12T00:41:19.005Z,63.37
2018-07-12T00:43:46.776Z,63.50
2018-07-12T00:46:14.534Z,63.27
2018-07-12T00:48:42.291Z,63.66
2018-07-12T00:51:10.045Z,64.39
2018-07-12T00:53:37.881Z,64.01
2018-07-12T00:56:05.612Z,64.24
2018-07-12T00:58:33.354Z,64.15
2018-07-12T01:01:01.148Z,63.37
2018-07-12T01:03:28.869Z,63.60
2018-07-12T01:05:56.641Z,63.89
2018-07-12T01:08:24.405Z,64.68
2018-07-12T01:10:52.130Z,64.26
2018-07-12T01:13:19.855Z,64.06
2018-07-12T01:15:47.656Z,64.29
2018-07-12T01:18:15.381Z,63.87
2018-07-12T01:20:43.131Z,64.48
2018-07-12T01:23:10.948Z,64.07
2018-07-12T01:25:38.678Z,63.79
2018-07-12T01:28:06.447Z,64.10
2018-07-12T01:30:34.190Z,63.50
2018-07-12T01:33:02.264Z,63.52
2018-07-12T01:35:29.973Z,63.52
2018-07-12T01:37:57.717Z,63.82
2018-07-12T01:40:25.459Z,63.27
2018-07-12T01:42:53.439Z,63.27
2018-07-12T01:45:21.301Z,63.86
2018-07-12T01:47:49.087Z,63.71
2018-07-12T01:50:16.871Z,64.26
2018-07-12T01:52:45.095Z,64.24
2018-07-12T01:55:12.854Z,64.13
2018-07-12T01:57:40.578Z,63.94
2018-07-12T02:00:08.334Z,63.89
2018-07-12T02:02:36.110Z,64.11
2018-07-12T02:05:03.861Z,64.36
2018-07-12T02:07:31.598Z,64.68
2018-07-12T02:09:59.647Z,64.75
2018-07-12T02:12:27.390Z,65.04
2018-07-12T02:14:55.129Z,64.72
2018-07-12T02:17:22.854Z,64.74
2018-07-12T02:19:50.581Z,64.63
2018-07-12T02:22:18.420Z,64.99
2018-07-12T02:24:46.169Z,65.71
2018-07-12T02:27:13.951Z,65.58
2018-07-12T02:29:41.750Z,65.85
2018-07-12T02:32:09.505Z,65.55
2018-07-12T02:34:37.259Z,65.90
2018-07-12T02:37:05.042Z,66.30
2018-07-12T02:39:32.793Z,66.05
2018-07-12T02:42:00.540Z,65.92
2018-07-12T02:44:28.295Z,65.58
2018-07-12T02:46:56.025Z,66.14
2018-07-12T02:49:23.764Z,65.64
2018-07-12T02:51:51.614Z,66.30
2018-07-12T02:54:19.385Z,66.32
2018-07-12T02:56:47.167Z,65.59
2018-07-12T02:59:14.917Z,66.02
2018-07-12T03:01:42.663Z,65.84
2018-07-12T03:04:10.379Z,65.91
2018-07-12T03:06:38.169Z,65.64
2018-07-12T03:09:07.066Z,64.83
2018-07-12T03:11:35.159Z,65.61
2018-07-12T03:14:02.993Z,64.77
2018-07-12T03:16:30.871Z,65.00
2018-07-12T03:18:58.785Z,64.75
2018-07-12T03:21:26.588Z,65.29
2018-07-12T03:23:54.345Z,64.51
2018-07-12T03:26:22.724Z,65.06
2018-07-12T03:28:50.488Z,65.64
2018-07-12T03:31:18.235Z,65.48
2018-07-12T03:33:45.970Z,65.52
2018-07-12T03:36:13.722Z,65.93
2018-07-12T03:38:41.586Z,66.20
2018-07-12T03:41:09.319Z,66.07
2018-07-12T03:43:37.089Z,66.77
2018-07-12T03:46:04.915Z,66.78
2018-07-12T03:48:32.707Z,66.62
2018-07-12T03:51:00.426Z,67.10
2018-07-12T03:53:28.152Z,67.50
2018-07-12T03:55:55.913Z,67.78
2018-07-12T03:58:23.663Z,67.61
2018-07-12T04:00:51.686Z,67.74
2018-07-12T04:03:19.454Z,68.42
2018-07-12T04:05:47.232Z,69.34
2018-07-12T04:08:15.055Z,68.88
2018-07-12T04:10:42.805Z,69.75
2018-07-12T04:13:10.547Z,68.86
2018-07-12T04:15:38.274Z,68.88
2018-07-12T04:18:06.027Z,69.11
2018-07-12T04:20:33.769Z,69.46
2018-07-12T04:23:01.521Z,69.34
2018-07-12T04:25:29.288Z,70.29
2018-07-12T04:27:57.037Z,70.29
2018-07-12T04:30:24.766Z,70.45
2018-07-12T04:32:52.513Z,70.36
2018-07-12T04:35:20.333Z,70.18
2018-07-12T04:37:48.117Z,69.85
2018-07-12T04:40:15.867Z,70.47
2018-07-12T04:42:43.622Z,70.68
2018-07-12T04:45:11.396Z,69.91
2018-07-12T04:47:39.160Z,70.17
2018-07-12T04:50:06.902Z,70.30
2018-07-12T04:52:35.936Z,69.95
2018-07-12T04:55:03.654Z,70.20
2018-07-12T04:57:31.418Z,70.57
2018-07-12T04:59:59.150Z,70.83
2018-07-12T05:02:28.443Z,70.48
2018-07-12T05:04:56.176Z,70.47
2018-07-12T05:07:23.934Z,70.07
2018-07-12T05:09:51.667Z,69.94
2018-07-12T05:12:19.751Z,69.86
2018-07-12T05:14:47.503Z,69.11
2018-07-12T05:17:15.383Z,68.98
2018-07-12T05:19:43.187Z,68.29
2018-07-12T05:22:10.933Z,68.18
2018-07-12T05:24:38.672Z,67.99
2018-07-12T05:27:06.554Z,66.06
2018-07-12T05:29:34.285Z,66.51
2018-07-12T05:32:02.020Z,66.09
2018-07-12T05:34:29.773Z,66.55
2018-07-12T05:37:01.159Z,65.96
2018-07-12T05:39:30.615Z,65.59
2018-07-12T05:41:59.999Z,65.41
2018-07-12T05:44:35.649Z,65.59
2018-07-12T05:47:05.116Z,65.00
2018-07-12T05:49:34.707Z,65.20
2018-07-12T05:52:04.066Z,64.35
2018-07-12T05:54:33.419Z,65.11
2018-07-12T05:57:02.807Z,64.47
2018-07-12T05:59:32.271Z,64.14
2018-07-12T06:02:14.486Z,63.78
2018-07-12T06:04:43.840Z,62.84
2018-07-12T06:07:13.360Z,62.20
2018-07-12T06:09:42.827Z,62.76
2018-07-12T06:12:12.372Z,61.91
2018-07-12T06:14:41.877Z,60.84
2018-07-12T06:17:11.293Z,60.95
2018-07-12T06:19:40.747Z,59.72
2018-07-12T06:22:10.186Z,60.55
2018-07-12T06:24:40.127Z,59.38
2018-07-12T06:27:09.586Z,59.47
2018-07-12T06:29:39.066Z,59.59
2018-07-12T06:32:08.645Z,59.38
2018-07-12T06:34:38.063Z,59.76
2018-07-12T06:37:07.520Z,59.93
2018-07-12T06:39:36.899Z,58.92
2018-07-12T06:42:06.394Z,58.77
2018-07-12T06:44:35.788Z,58.78
2018-07-12T06:47:12.622Z,58.33
2018-07-12T06:49:42.061Z,58.42
2018-07-12T06:52:11.638Z,57.88
2018-07-12T06:54:41.203Z,58.56
2018-07-12T06:57:10.696Z,56.87
2018-07-12T06:59:40.139Z,56.72
2018-07-12T07:02:09.587Z,56.80
2018-07-12T07:04:39.005Z,56.23
2018-07-12T07:07:08.789Z,55.67
2018-07-12T07:09:38.168Z,55.67
2018-07-12T07:12:07.543Z,55.32
2018-07-12T07:14:36.952Z,54.38
2018-07-12T07:17:06.375Z,55.68
2018-07-12T07:19:36.697Z,55.98
2018-07-12T07:22:06.174Z,55.71
2018-07-12T07:24:35.551Z,53.62
2018-07-12T07:27:04.963Z,53.58
2018-07-12T07:29:34.313Z,53.43
2018-07-12T07:32:03.727Z,53.03
2018-07-12T07:34:32.821Z,54.53
2018-07-12T07:37:02.206Z,53.50
2018-07-12T07:39:31.565Z,53.40
2018-07-12T07:42:01.091Z,53.42
2018-07-12T07:44:30.462Z,54.31
2018-07-12T07:46:59.810Z,52.34
2018-07-12T07:49:29.209Z,53.48
2018-07-12T07:51:58.573Z,53.77
2018-07-12T07:54:27.933Z,53.85
2018-07-12T07:56:57.288Z,54.32
2018-07-12T07:59:26.587Z,50.92
2018-07-12T08:01:55.988Z,51.16
2018-07-12T08:04:25.391Z,50.93
2018-07-12T08:06:54.771Z,50.17
2018-07-12T08:09:24.186Z,51.21
2018-07-12T08:11:53.770Z,51.65
2018-07-12T08:14:23.189Z,50.85
2018-07-12T08:16:52.590Z,49.70
2018-07-12T08:19:22.009Z,47.94
2018-07-12T08:22:01.962Z,48.00
2018-07-12T08:24:31.378Z,48.76
2018-07-12T08:27:00.733Z,48.51
2018-07-12T08:29:30.469Z,49.51
2018-07-12T08:32:00.065Z,50.63
2018-07-12T08:34:29.458Z,51.98
2018-07-12T08:36:58.895Z,52.02
2018-07-12T08:39:28.240Z,48.80
2018-07-12T08:41:57.699Z,50.39
2018-07-12T08:44:27.066Z,48.27
2018-07-12T08:46:56.578Z,47.24
2018-07-12T08:49:25.921Z,47.92
2018-07-12T08:51:55.322Z,48.10
2018-07-12T08:54:25.003Z,47.60
2018-07-12T08:56:54.404Z,48.76
2018-07-12T08:59:24.742Z,47.65
2018-07-12T09:01:54.894Z,47.85
2018-07-12T09:04:24.296Z,48.00
2018-07-12T09:06:53.788Z,49.18
2018-07-12T09:09:23.259Z,49.39
2018-07-12T09:11:52.724Z,48.62
2018-07-12T09:14:22.148Z,50.08
2018-07-12T09:16:51.621Z,51.57
2018-07-12T09:19:21.369Z,50.75
2018-07-12T09:21:50.866Z,53.54
2018-07-12T09:24:20.271Z,49.53
2018-07-12T09:26:49.695Z,47.90
2018-07-12T09:29:19.179Z,48.14
2018-07-12T09:31:48.486Z,45.51
2018-07-12T09:34:18.006Z,47.93
2018-07-12T09:36:47.491Z,48.79
2018-07-12T09:39:16.917Z,49.43
2018-07-12T09:41:46.311Z,48.97
2018-07-12T09:44:15.684Z,51.16
2018-07-12T09:46:45.095Z,46.59
2018-07-12T09:49:14.742Z,46.39
2018-07-12T09:51:43.911Z,47.75
2018-07-12T09:54:13.322Z,47.10
2018-07-12T09:56:59.416Z,47.88
2018-07-12T09:59:28.859Z,47.50
2018-07-12T10:02:03.630Z,47.06
2018-07-12T10:04:33.070Z,46.83
2018-07-12T10:07:07.704Z,45.25
2018-07-12T10:09:42.274Z,45.66
2018-07-12T10:12:15.742Z,48.57
2018-07-12T10:14:51.058Z,48.05
2018-07-12T10:17:25.631Z,45.86
2018-07-12T10:19:55.037Z,48.43
2018-07-12T10:22:24.400Z,47.43
2018-07-12T10:24:53.754Z,48.21
2018-07-12T10:27:22.889Z,47.36
2018-07-12T10:29:52.832Z,48.40
2018-07-12T10:32:22.252Z,45.60
2018-07-12T10:34:51.756Z,46.65
2018-07-12T10:37:21.222Z,47.72
2018-07-12T10:39:50.675Z,46.83
2018-07-12T10:42:20.174Z,47.65
2018-07-12T10:44:49.698Z,49.26
2018-07-12T10:47:19.174Z,47.84
2018-07-12T10:49:48.536Z,47.43
2018-07-12T10:52:18.092Z,47.05
2018-07-12T10:54:47.612Z,47.66
2018-07-12T10:57:16.990Z,47.83
2018-07-12T10:59:46.389Z,49.89
2018-07-12T11:02:15.770Z,51.27
2018-07-12T11:04:45.167Z,51.96
2018-07-12T11:07:14.526Z,51.16
2018-07-12T11:09:44.897Z,50.01
2018-07-12T11:12:14.246Z,49.28
2018-07-12T11:14:43.605Z,50.98
2018-07-12T11:17:13.491Z,48.69
2018-07-12T11:19:42.878Z,51.02
2018-07-12T11:22:12.255Z,51.55
2018-07-12T11:24:41.650Z,50.54
2018-07-12T11:27:11.069Z,49.89
2018-07-12T11:29:53.644Z,52.24
2018-07-12T11:32:23.163Z,49.08
2018-07-12T11:34:52.629Z,50.18
2018-07-12T11:37:28.429Z,51.31
2018-07-12T11:39:57.878Z,52.72
2018-07-12T11:42:27.280Z,52.16
2018-07-12T11:44:56.868Z,55.14
2018-07-12T11:47:26.351Z,51.41
2018-07-12T11:49:55.793Z,53.01
2018-07-12T11:52:25.149Z,50.86
2018-07-12T11:54:54.680Z,53.73
2018-07-12T11:57:24.081Z,50.96
2018-07-12T11:59:53.989Z,52.53
2018-07-12T12:02:23.464Z,49.49
2018-07-12T12:04:52.915Z,47.98
2018-07-12T12:07:22.478Z,48.10
2018-07-12T12:09:51.880Z,49.48
2018-07-12T12:12:21.265Z,47.83
2018-07-12T12:14:50.800Z,50.49
2018-07-12T12:17:20.268Z,49.16
2018-07-12T12:19:49.697Z,47.95
2018-07-12T12:22:19.073Z,48.36
2018-07-12T12:24:48.425Z,46.87
2018-07-12T12:27:17.889Z,49.42
2018-07-12T12:29:47.309Z,47.85
2018-07-12T12:32:16.759Z,49.15
2018-07-12T12:34:46.153Z,49.32
2018-07-12T12:37:15.621Z,47.59
2018-07-12T12:39:44.947Z,47.32
2018-07-12T12:42:14.537Z,46.32
2018-07-12T12:44:43.953Z,46.40
2018-07-12T12:47:13.354Z,46.59
2018-07-12T12:49:42.789Z,46.51
2018-07-12T12:52:12.185Z,50.38
2018-07-12T12:54:41.525Z,47.45
2018-07-12T12:57:10.949Z,46.90
2018-07-12T12:59:40.361Z,47.97
2018-07-12T13:02:09.773Z,46.66
2018-07-12T13:04:39.279Z,48.16
2018-07-12T13:07:08.676Z,47.79
2018-07-12T13:09:38.532Z,47.67
2018-07-12T13:12:07.935Z,48.00
2018-07-12T13:14:37.287Z,49.34
2018-07-12T13:17:06.829Z,48.63
2018-07-12T13:19:36.224Z,47.47
2018-07-12T13:22:05.601Z,48.44
2018-07-12T13:24:34.955Z,48.62
2018-07-12T13:27:04.321Z,48.99
2018-07-12T13:29:33.789Z,48.06
2018-07-12T13:32:03.194Z,46.48
2018-07-12T13:34:32.272Z,46.25
2018-07-12T13:37:02.787Z,45.74
2018-07-12T13:39:32.402Z,48.03
2018-07-12T13:42:01.761Z,47.71
2018-07-12T13:44:31.109Z,45.58
2018-07-12T13:47:00.263Z,47.42
2018-07-12T13:49:29.592Z,46.17
2018-07-12T13:51:58.992Z,45.87
2018-07-12T13:54:28.339Z,47.74
2018-07-12T13:56:57.719Z,47.53
2018-07-12T13:59:27.064Z,44.77
2018-07-12T14:01:56.450Z,45.73
2018-07-12T14:04:25.874Z,45.67
2018-07-12T14:06:55.383Z,47.05
2018-07-12T14:09:25.629Z,46.82
2018-07-12T14:11:55.106Z,46.33
2018-07-12T14:14:24.514Z,46.16
2018-07-12T14:16:53.960Z,45.99
2018-07-12T14:19:23.386Z,47.59
2018-07-12T14:21:53.118Z,46.13
2018-07-12T14:24:22.552Z,44.69
2018-07-12T14:26:51.916Z,46.03
2018-07-12T14:29:21.616Z,44.91
2018-07-12T14:31:51.047Z,46.39
2018-07-12T14:34:20.549Z,45.17
2018-07-12T14:36:49.995Z,46.44
2018-07-12T14:39:19.421Z,47.83
2018-07-12T14:41:48.856Z,46.18
2018-07-12T14:44:18.302Z,44.80
2018-07-12T14:46:47.751Z,46.17
2018-07-12T14:49:17.129Z,45.21
2018-07-12T14:51:46.511Z,47.18
2018-07-12T14:54:15.921Z,47.11
2018-07-12T14:56:45.315Z,47.48
2018-07-12T14:59:14.682Z,45.38
2018-07-12T15:01:44.237Z,47.07
2018-07-12T15:04:13.576Z,48.73
2018-07-12T15:06:42.933Z,48.19
2018-07-12T15:09:12.341Z,46.31
2018-07-12T15:11:42.290Z,47.01
2018-07-12T15:14:11.714Z,49.15
2018-07-12T15:16:41.091Z,46.49
2018-07-12T15:19:10.549Z,47.81
2018-07-12T15:21:39.887Z,46.19
2018-07-12T15:24:09.260Z,46.59
2018-07-12T15:26:38.629Z,47.83
2018-07-12T15:29:08.015Z,48.40
2018-07-12T15:31:37.448Z,46.51
2018-07-12T15:34:06.787Z,45.43
2018-07-12T15:36:36.135Z,45.34
2018-07-12T15:39:07.399Z,46.09
2018-07-12T15:41:37.115Z,46.53
2018-07-12T15:44:06.554Z,46.83
2018-07-12T15:46:35.915Z,45.70
2018-07-12T15:49:05.331Z,45.37
2018-07-12T15:51:34.811Z,46.89
2018-07-12T15:54:04.213Z,47.34
2018-07-12T15:56:33.600Z,47.88
2018-07-12T15:59:02.975Z,47.59
2018-07-12T16:01:32.369Z,47.49
2018-07-12T16:04:01.744Z,47.64
2018-07-12T16:06:31.129Z,48.40
2018-07-12T16:09:00.441Z,48.16
2018-07-12T16:11:29.790Z,48.28
2018-07-12T16:13:59.174Z,46.85
2018-07-12T16:16:28.579Z,47.20
2018-07-12T16:18:58.407Z,47.13
2018-07-12T16:21:27.831Z,47.59
2018-07-12T16:23:57.197Z,45.92
2018-07-12T16:26:26.551Z,46.70
2018-07-12T16:28:55.920Z,47.93
2018-07-12T16:31:25.344Z,46.77
2018-07-12T16:33:54.757Z,46.41
2018-07-12T16:36:24.159Z,47.56
2018-07-12T16:38:53.562Z,47.05
2018-07-12T16:41:22.994Z,47.31
2018-07-12T16:43:52.512Z,48.34
2018-07-12T16:46:21.912Z,47.71
2018-07-12T16:48:51.742Z,48.00
2018-07-12T16:51:21.217Z,47.64
2018-07-12T16:53:50.811Z,47.65
2018-07-12T16:56:20.196Z,46.41
2018-07-12T16:58:49.557Z,47.30
2018-07-12T17:01:19.063Z,46.31
2018-07-12T17:03:48.525Z,46.42
2018-07-12T17:06:17.900Z,46.66
2018-07-12T17:08:47.346Z,46.87
2018-07-12T17:11:16.710Z,46.97
2018-07-12T17:13:46.104Z,47.26
2018-07-12T17:16:15.989Z,46.87
2018-07-12T17:18:45.720Z,47.62
2018-07-12T17:21:15.100Z,46.93
2018-07-12T17:23:44.501Z,46.17
2018-07-12T17:26:13.953Z,47.88
2018-07-12T17:28:43.373Z,47.68
2018-07-12T17:31:12.773Z,46.79
2018-07-12T17:33:42.158Z,47.79
2018-07-12T17:36:11.584Z,47.47
2018-07-12T17:38:41.054Z,47.93
2018-07-12T17:41:10.557Z,47.47
2018-07-12T17:43:40.254Z,47.01
2018-07-12T17:46:09.666Z,46.52
2018-07-12T17:48:39.046Z,47.61
2018-07-12T17:51:08.668Z,46.93
2018-07-12T17:53:38.081Z,47.52
2018-07-12T17:56:07.601Z,47.15
2018-07-12T17:58:37.087Z,48.26
2018-07-12T18:01:06.646Z,47.58
2018-07-12T18:03:36.064Z,48.06
2018-07-12T18:06:05.448Z,47.71
2018-07-12T18:08:34.926Z,48.87
2018-07-12T18:11:04.321Z,48.22
2018-07-12T18:13:33.772Z,48.02
2018-07-12T18:16:05.514Z,48.46
2018-07-12T18:18:35.714Z,48.25
2018-07-12T18:21:05.170Z,48.24
2018-07-12T18:23:34.634Z,48.81
2018-07-12T18:26:04.034Z,48.81
2018-07-12T18:28:33.386Z,49.06
2018-07-12T18:31:02.712Z,51.24
2018-07-12T18:33:32.142Z,49.29
2018-07-12T18:36:01.536Z,50.29
2018-07-12T18:41:31.511Z,52.42
2018-07-12T18:44:00.901Z,52.26
2018-07-12T18:46:30.440Z,53.17
2018-07-12T18:48:59.936Z,53.62
2018-07-12T18:51:30.009Z,53.56
2018-07-12T18:53:59.618Z,52.39
2018-07-12T18:56:29.118Z,53.95
2018-07-12T18:58:58.720Z,53.74
2018-07-12T19:01:29.047Z,54.59
2018-07-12T19:03:58.712Z,53.15
2018-07-12T19:06:28.383Z,55.58
2018-07-12T19:08:57.878Z,55.68
2018-07-12T19:11:27.341Z,55.15
2018-07-12T19:13:56.794Z,54.17
2018-07-12T19:16:27.372Z,55.89
2018-07-12T19:18:56.753Z,55.27
2018-07-12T19:21:26.185Z,56.63
2018-07-12T19:23:55.703Z,55.46
2018-07-12T19:26:25.131Z,56.10
2018-07-12T19:28:54.536Z,55.92
2018-07-12T19:31:23.979Z,57.48
2018-07-12T19:33:53.385Z,57.11
2018-07-12T19:36:22.842Z,57.34
2018-07-12T19:38:52.291Z,56.78
2018-07-12T19:41:21.670Z,57.03
2018-07-12T19:43:51.195Z,57.40
2018-07-12T19:46:20.611Z,57.70
2018-07-12T19:48:50.182Z,58.14
2018-07-12T19:51:19.612Z,58.25
2018-07-12T19:53:49.123Z,57.68
2018-07-12T19:56:18.626Z,57.75
2018-07-12T19:58:48.252Z,58.16
2018-07-12T20:01:17.734Z,58.50
2018-07-12T20:03:48.320Z,58.81
2018-07-12T20:06:17.808Z,58.56
2018-07-12T20:08:47.286Z,59.04
2018-07-12T20:11:16.758Z,59.49
2018-07-12T20:13:46.331Z,58.76
2018-07-12T20:16:15.899Z,58.61
2018-07-12T20:18:45.349Z,59.95
2018-07-12T20:21:15.018Z,59.73
2018-07-12T20:23:44.578Z,60.04
2018-07-12T20:26:14.171Z,59.96
2018-07-12T20:28:43.766Z,59.90
2018-07-12T20:31:13.493Z,59.76
2018-07-12T20:33:42.945Z,60.21
2018-07-12T20:36:12.676Z,59.97
2018-07-12T20:38:42.431Z,60.13
2018-07-12T20:41:12.053Z,60.48
2018-07-12T20:43:41.295Z,59.75
2018-07-12T20:46:10.961Z,60.28
2018-07-12T20:48:41.159Z,60.97
2018-07-12T20:51:11.268Z,61.22
2018-07-12T20:53:41.223Z,60.64
2018-07-12T20:56:10.731Z,61.22
2018-07-12T20:58:40.317Z,61.74
2018-07-12T21:01:09.890Z,61.34
2018-07-12T21:03:39.361Z,61.38
2018-07-12T21:06:08.895Z,61.13
2018-07-12T21:08:38.541Z,61.00
2018-07-12T21:11:07.967Z,60.33
2018-07-12T21:13:37.462Z,60.38
2018-07-12T21:16:06.991Z,61.15
2018-07-12T21:18:36.509Z,61.22
2018-07-12T21:21:06.168Z,60.80
2018-07-12T21:23:35.988Z,61.41
2018-07-12T21:26:05.431Z,60.67
2018-07-12T21:28:34.810Z,61.34
2018-07-12T21:31:04.827Z,61.88
2018-07-12T21:33:34.439Z,61.09
2018-07-12T21:36:03.828Z,61.25
2018-07-12T21:38:33.290Z,62.06
2018-07-12T21:41:02.801Z,61.45
2018-07-12T21:43:32.374Z,62.20
2018-07-12T21:46:02.023Z,62.28
2018-07-12T21:48:31.494Z,61.98
2018-07-12T21:51:01.305Z,62.57
2018-07-12T21:53:30.797Z,63.05
2018-07-12T21:56:00.322Z,62.19
2018-07-12T21:58:29.871Z,62.45
2018-07-12T22:00:59.483Z,62.63
2018-07-12T22:03:28.934Z,63.14
2018-07-12T22:05:58.425Z,62.64
2018-07-12T22:08:28.751Z,63.51
2018-07-12T22:11:00.010Z,63.11
2018-07-12T22:13:29.801Z,64.12
2018-07-12T22:15:59.281Z,63.03
2018-07-12T22:18:28.728Z,63.37
2018-07-12T22:20:58.302Z,63.66
2018-07-12T22:23:27.948Z,61.20
2018-07-12T22:25:57.492Z,61.39
2018-07-12T22:28:27.536Z,61.63
2018-07-12T22:30:57.139Z,62.34
2018-07-12T22:33:26.567Z,63.65
2018-07-12T22:35:56.361Z,63.20
2018-07-12T22:38:26.032Z,63.93
2018-07-12T22:40:55.531Z,64.34
2018-07-12T22:43:24.934Z,64.26
2018-07-12T22:45:54.536Z,64.10
2018-07-12T22:48:24.537Z,64.30
2018-07-12T22:50:53.752Z,63.96
2018-07-12T22:53:23.085Z,64.75
2018-07-12T22:55:52.633Z,64.61
2018-07-12T22:58:22.101Z,65.04
2018-07-12T23:00:51.541Z,64.89
2018-07-12T23:03:20.983Z,65.26
2018-07-12T23:05:50.401Z,63.96
2018-07-12T23:08:21.915Z,64.73
2018-07-12T23:10:51.436Z,64.61
2018-07-12T23:13:21.137Z,64.87
2018-07-12T23:15:50.584Z,63.96
2018-07-12T23:18:20.000Z,64.69
2018-07-12T23:20:50.421Z,63.37
2018-07-12T23:23:19.821Z,63.42
2018-07-12T23:25:49.268Z,63.16
2018-07-12T23:28:18.693Z,64.25
2018-07-12T23:30:48.165Z,64.31
2018-07-12T23:33:17.577Z,63.91
2018-07-12T23:35:47.037Z,64.16
2018-07-12T23:38:16.610Z,64.52
2018-07-12T23:40:46.015Z,64.25
2018-07-12T23:43:15.411Z,64.23
2018-07-12T23:45:44.806Z,65.11
2018-07-12T23:48:14.244Z,64.83
2018-07-12T23:50:43.700Z,64.87
2018-07-12T23:53:13.178Z,65.06
2018-07-12T23:55:42.606Z,65.58
2018-07-12T23:58:12.023Z,65.02
